»·PEaware :: N184CF KBFL-KMHV

N184CF :: KBFL-KMHV

FLIGHT INFORMATION

Flight Status: Arrived
Operator: Privately registered:
United States
More flights under this callsign
Pilot: Arik P. (45269)
Aircraft: Unknown
(P28)
More flights by this aircraft type
Origin: KBFL Meadows
United States
Destination: KMHV Mojave
United States
More flights between these airports :: More routes between these airports
Route:
File this flight plan on PilotEdge
Remarks:
Altitude:
(Current/Filed)
9,500ft
Speed:
(Current/Filed)
100kts
Departed: 31-Oct-23 04:11 PM
Arrived: 31-Oct-23 04:52 PM
Distance/Time
Traveled:
49nm/0:41
Distance/Time
To Go:
Arrived

Flight Plot

Page will automatically refresh every two minutes.


Map Options




Map Legend


Flown Route
Filed Route
Departure Airport
Arrival Airport
Navaid (VOR, NDB)
Fix

Horizontal Profiles

Position Reports

Time Latitude Longitude Heading Altitude Ground
Speed
31-Oct-23 15:51 35.428714 -119.045458 63 481ft 0kts
31-Oct-23 15:52 35.428714 -119.045458 63 481ft 0kts
31-Oct-23 15:53 35.428714 -119.045458 63 481ft 0kts
31-Oct-23 15:54 35.428714 -119.045458 63 481ft 0kts
31-Oct-23 15:55 35.428714 -119.045458 63 481ft 0kts
31-Oct-23 15:56 35.428714 -119.045458 63 481ft 0kts
31-Oct-23 15:57 35.428714 -119.045458 63 481ft 0kts
31-Oct-23 15:58 35.427434 -119.044980 136 477ft 17kts
31-Oct-23 15:59 35.425227 -119.044031 240 471ft 0kts
31-Oct-23 16:00 35.425227 -119.044031 240 471ft 0kts
31-Oct-23 16:01 35.425227 -119.044031 240 471ft 0kts
31-Oct-23 16:02 35.425227 -119.044031 240 471ft 0kts
31-Oct-23 16:03 35.425176 -119.044253 266 471ft 0kts
31-Oct-23 16:04 35.425176 -119.044253 266 471ft 0kts
31-Oct-23 16:05 35.425332 -119.044573 286 472ft 0kts
31-Oct-23 16:06 35.425332 -119.044573 286 472ft 0kts
31-Oct-23 16:07 35.425332 -119.044573 286 472ft 0kts
31-Oct-23 16:08 35.425332 -119.044573 286 472ft 0kts
31-Oct-23 16:09 35.425378 -119.045752 274 474ft 11kts
31-Oct-23 16:10 35.435331 -119.057846 313 995ft 73kts
31-Oct-23 16:11 35.450627 -119.073940 319 2091ft 70kts
31-Oct-23 16:12 35.468220 -119.078319 32 2992ft 79kts
31-Oct-23 16:13 35.463212 -119.055826 128 3933ft 80kts
31-Oct-23 16:14 35.456940 -119.031006 79 4767ft 84kts
31-Oct-23 16:15 35.456306 -119.003352 98 5604ft 82kts
31-Oct-23 16:16 35.456150 -118.975229 66 6304ft 90kts
31-Oct-23 16:17 35.464395 -118.947800 70 7099ft 82kts
31-Oct-23 16:18 35.470760 -118.919491 73 7767ft 87kts
31-Oct-23 16:19 35.477351 -118.891102 77 8466ft 85kts
31-Oct-23 16:20 35.467624 -118.868213 156 9099ft 85kts
31-Oct-23 16:21 35.445210 -118.859755 162 9603ft 95kts
31-Oct-23 16:22 35.418327 -118.840607 153 9405ft 118kts
31-Oct-23 16:23 35.395258 -118.814836 139 9499ft 111kts
31-Oct-23 16:24 35.372043 -118.788901 140 9507ft 113kts
31-Oct-23 16:25 35.348886 -118.762617 139 9573ft 109kts
31-Oct-23 16:26 35.322664 -118.755121 117 9379ft 120kts
31-Oct-23 16:27 35.315245 -118.717332 96 9443ft 113kts
31-Oct-23 16:28 35.310441 -118.679278 99 9501ft 113kts
31-Oct-23 16:29 35.290175 -118.651092 139 9514ft 112kts
31-Oct-23 16:30 35.271358 -118.620325 129 9544ft 113kts
31-Oct-23 16:31 35.252042 -118.589900 129 9581ft 112kts
31-Oct-23 16:32 35.232036 -118.559841 141 9488ft 119kts
31-Oct-23 16:33 35.207698 -118.533908 140 9532ft 112kts
31-Oct-23 16:34 35.184419 -118.508713 140 9551ft 112kts
31-Oct-23 16:35 35.159667 -118.484002 142 9540ft 111kts
31-Oct-23 16:36 35.136282 -118.458738 130 9583ft 109kts
31-Oct-23 16:37 35.119692 -118.427713 134 9441ft 104kts
31-Oct-23 16:38 35.113905 -118.391020 88 8614ft 108kts
31-Oct-23 16:39 35.127814 -118.380969 248 7383ft 117kts
31-Oct-23 16:40 35.109932 -118.368429 105 7001ft 98kts
31-Oct-23 16:41 35.099758 -118.336940 105 7041ft 106kts
31-Oct-23 16:42 35.099718 -118.300359 81 7279ft 114kts
31-Oct-23 16:43 35.100050 -118.262100 90 7292ft 113kts
31-Oct-23 16:44 35.104111 -118.221444 88 6076ft 124kts
31-Oct-23 16:45 35.101654 -118.181907 92 4929ft 106kts
31-Oct-23 16:46 35.091432 -118.153785 169 4099ft 107kts
31-Oct-23 16:47 35.077263 -118.170773 269 3678ft 79kts
31-Oct-23 16:48 35.076690 -118.194109 251 3771ft 66kts
31-Oct-23 16:49 35.059469 -118.190532 95 3506ft 98kts
31-Oct-23 16:50 35.059238 -118.161435 89 2777ft 70kts
31-Oct-23 16:51 35.058922 -118.150253 130 2753ft 15kts
31-Oct-23 16:52 35.058020 -118.149542 188 2752ft 11kts
31-Oct-23 16:53 35.057369 -118.157495 216 2768ft 5kts
31-Oct-23 16:54 35.057435 -118.158339 151 2769ft 12kts
31-Oct-23 16:55 35.057250 -118.157958 89 2769ft 0kts
31-Oct-23 16:56 35.057250 -118.157958 89 2769ft 0kts

Navigation Log

Ident Type
Flight plan parsing failed, navigation log unavailable